Time;durP1;ratioP1;P1;durP2;ratioP2;P2;SDS_P1;SDS_P2;PMS_P1;PMS_P2;Temp;Humidity;BMP_temperature;BMP_pressure;BME280_temperature;BME280_humidity;BME280_pressure;Samples;Min_cycle;Max_cycle;Signal;HPM_P1;HPM_P2
2023/08/03 00:02:23;;;;;;;3.63;3.33;;;16.10;99.90;;;;;;5051450;28;20179;-72
2023/08/03 00:04:49;;;;;;;4.70;3.13;;;16.10;99.90;;;;;;5047642;28;20273;-74
2023/08/03 00:07:15;;;;;;;2.93;2.73;;;16.10;99.90;;;;;;5030441;28;20544;-74
2023/08/03 00:09:42;;;;;;;3.97;3.57;;;16.20;99.90;;;;;;5031764;28;20451;-73
2023/08/03 00:12:09;;;;;;;3.20;3.00;;;16.30;99.90;;;;;;5029864;28;20215;-72
2023/08/03 00:14:35;;;;;;;3.20;3.00;;;16.40;99.90;;;;;;5031457;28;20175;-72
2023/08/03 00:17:01;;;;;;;8.43;3.07;;;16.40;99.90;;;;;;5031492;28;20175;-71
2023/08/03 00:19:26;;;;;;;3.00;2.70;;;16.50;99.90;;;;;;5037786;28;20198;-73
2023/08/03 00:21:52;;;;;;;4.10;2.60;;;16.60;99.90;;;;;;5050956;28;20654;-74
2023/08/03 00:24:17;;;;;;;2.97;2.60;;;16.70;99.90;;;;;;5051326;28;20183;-71
2023/08/03 00:26:43;;;;;;;8.00;2.90;;;16.70;99.90;;;;;;5051200;28;20183;-73
2023/08/03 00:29:08;;;;;;;2.80;2.60;;;16.90;99.90;;;;;;5051335;28;20663;-72
2023/08/03 00:31:34;;;;;;;2.83;2.63;;;16.90;99.90;;;;;;5051075;28;20255;-72
2023/08/03 00:33:59;;;;;;;2.70;2.50;;;16.90;99.90;;;;;;5042394;28;20188;-73
2023/08/03 00:36:25;;;;;;;4.13;2.30;;;16.90;99.90;;;;;;5031509;28;20198;-72
2023/08/03 00:38:51;;;;;;;2.40;2.30;;;16.80;99.90;;;;;;5030964;28;20176;-71
2023/08/03 00:41:16;;;;;;;2.63;2.53;;;16.90;99.90;;;;;;5031085;28;20215;-72
2023/08/03 00:43:42;;;;;;;3.00;2.70;;;16.90;99.90;;;;;;5031106;28;20229;-71
2023/08/03 00:46:08;;;;;;;2.70;2.50;;;16.90;99.90;;;;;;5031259;28;20577;-72
2023/08/03 00:48:34;;;;;;;2.90;2.50;;;16.90;99.90;;;;;;5031390;28;20286;-71
2023/08/03 00:50:59;;;;;;;2.40;2.30;;;17.00;99.90;;;;;;5031536;28;20286;-71
2023/08/03 00:53:25;;;;;;;3.87;2.67;;;17.00;99.90;;;;;;5031090;28;20178;-72
2023/08/03 00:55:50;;;;;;;2.60;2.40;;;17.10;99.90;;;;;;5031159;28;20580;-71
2023/08/03 00:58:16;;;;;;;2.83;2.50;;;17.10;99.90;;;;;;5033241;28;20171;-72
2023/08/03 01:00:42;;;;;;;2.73;2.50;;;17.20;99.90;;;;;;5034877;28;20230;-71
2023/08/03 01:03:08;;;;;;;2.70;2.50;;;17.20;99.90;;;;;;5035127;28;20241;-70
2023/08/03 01:05:33;;;;;;;2.83;2.37;;;17.20;99.90;;;;;;5034999;28;20260;-72
2023/08/03 01:07:59;;;;;;;3.00;2.40;;;17.20;99.90;;;;;;5034903;28;20176;-71
2023/08/03 01:10:25;;;;;;;3.00;2.70;;;17.20;99.90;;;;;;5034689;28;20261;-73
2023/08/03 01:12:51;;;;;;;3.13;2.57;;;17.20;99.90;;;;;;5034262;28;20656;-72
2023/08/03 01:15:17;;;;;;;3.10;2.83;;;17.20;99.90;;;;;;5034832;28;20175;-72
2023/08/03 01:17:42;;;;;;;2.77;2.57;;;17.20;99.90;;;;;;5050192;28;20178;-71
2023/08/03 01:20:08;;;;;;;3.00;2.80;;;17.10;99.90;;;;;;5054472;28;20218;-72
2023/08/03 01:22:44;;;;;;;3.00;2.47;;;17.00;99.90;;;;;;5052952;28;20258;-72
2023/08/03 01:25:11;;;;;;;3.23;2.80;;;17.00;99.90;;;;;;5054616;28;20166;-72
2023/08/03 01:27:36;;;;;;;2.73;2.53;;;16.90;99.90;;;;;;5054630;28;20179;-71
2023/08/03 01:30:03;;;;;;;3.37;2.60;;;16.90;99.90;;;;;;5054595;28;20206;-72
2023/08/03 01:32:29;;;;;;;2.87;2.67;;;16.90;99.90;;;;;;5034411;28;20211;-71
2023/08/03 01:34:55;;;;;;;2.70;2.50;;;16.90;99.90;;;;;;5034290;28;20182;-72
2023/08/03 01:37:20;;;;;;;2.83;2.63;;;16.90;99.90;;;;;;5034366;28;20186;-71
2023/08/03 01:39:46;;;;;;;4.23;2.90;;;16.90;99.90;;;;;;5034252;28;20696;-72
2023/08/03 01:42:13;;;;;;;4.37;2.50;;;16.90;99.90;;;;;;5034247;28;20175;-71
2023/08/03 01:44:39;;;;;;;3.10;2.90;;;16.90;99.90;;;;;;5033258;28;20531;-71
2023/08/03 01:47:04;;;;;;;2.80;2.60;;;16.90;99.90;;;;;;5032831;28;20551;-72
2023/08/03 01:49:32;;;;;;;3.23;2.80;;;16.90;99.90;;;;;;5034247;28;20206;-72
2023/08/03 01:51:58;;;;;;;3.10;2.73;;;16.90;99.90;;;;;;5033642;28;20211;-72
2023/08/03 01:54:24;;;;;;;3.60;2.70;;;17.00;99.90;;;;;;5035127;28;20699;-71
2023/08/03 01:56:50;;;;;;;3.17;2.70;;;17.00;99.90;;;;;;5034009;28;20183;-70
2023/08/03 01:59:16;;;;;;;3.27;2.97;;;17.00;99.90;;;;;;5034056;28;20660;-70
2023/08/03 02:01:41;;;;;;;2.73;2.60;;;17.00;99.90;;;;;;5033625;28;20171;-73
2023/08/03 02:04:07;;;;;;;3.37;3.07;;;17.00;99.90;;;;;;5034009;28;20207;-72
2023/08/03 02:06:33;;;;;;;2.50;2.30;;;17.10;99.90;;;;;;5033842;28;20662;-72
2023/08/03 02:08:58;;;;;;;3.93;2.80;;;17.10;99.90;;;;;;5032659;28;20553;-71
2023/08/03 02:11:25;;;;;;;2.90;2.67;;;17.10;99.90;;;;;;5033250;28;20215;-69
2023/08/03 02:13:50;;;;;;;2.70;2.50;;;17.10;99.90;;;;;;5033623;28;20218;-71
2023/08/03 02:16:16;;;;;;;2.87;2.37;;;17.10;99.90;;;;;;5033485;28;20654;-71
2023/08/03 02:18:42;;;;;;;5.60;2.60;;;17.10;99.90;;;;;;5052300;28;20178;-72
2023/08/03 02:21:07;;;;;;;2.93;2.50;;;17.20;99.90;;;;;;5053200;28;20244;-72
2023/08/03 02:23:33;;;;;;;2.47;2.37;;;17.10;99.90;;;;;;5053132;28;20198;-73
2023/08/03 02:26:02;;;;;;;2.90;2.70;;;17.10;99.90;;;;;;5050974;28;20174;-71
2023/08/03 02:28:31;;;;;;;5.53;2.90;;;17.10;99.90;;;;;;5052836;28;20652;-70
2023/08/03 02:30:57;;;;;;;2.63;2.43;;;17.10;99.90;;;;;;5053085;28;20353;-72
2023/08/03 02:33:23;;;;;;;3.90;2.60;;;17.10;99.90;;;;;;5052939;28;20591;-71
2023/08/03 02:35:48;;;;;;;4.00;2.90;;;17.10;99.90;;;;;;5038650;28;20174;-72
2023/08/03 02:38:14;;;;;;;5.10;2.40;;;17.10;99.90;;;;;;5049289;28;20188;-72
2023/08/03 02:40:40;;;;;;;2.83;2.63;;;17.10;99.90;;;;;;5051796;28;20255;-72
2023/08/03 02:43:05;;;;;;;2.40;2.30;;;17.10;99.90;;;;;;5052724;28;20232;-72
2023/08/03 02:45:31;;;;;;;2.53;2.40;;;17.00;99.90;;;;;;5053048;28;20229;-72
2023/08/03 02:47:57;;;;;;;3.47;2.70;;;17.00;99.90;;;;;;5052919;28;20175;-72
2023/08/03 02:50:22;;;;;;;2.43;2.30;;;17.10;99.90;;;;;;5051231;28;20201;-72
2023/08/03 02:52:49;;;;;;;2.73;2.50;;;17.00;99.90;;;;;;5012246;28;20183;-72
2023/08/03 02:55:14;;;;;;;3.50;3.00;;;17.00;99.90;;;;;;5013226;28;20172;-71
2023/08/03 02:57:40;;;;;;;3.03;2.80;;;16.90;99.90;;;;;;5013139;28;20172;-71
2023/08/03 03:00:06;;;;;;;2.90;2.53;;;16.90;99.90;;;;;;5012773;28;20215;-72
2023/08/03 03:02:32;;;;;;;2.27;2.17;;;16.90;99.90;;;;;;5012649;28;20263;-72
2023/08/03 03:04:57;;;;;;;2.23;2.13;;;16.90;99.90;;;;;;5012714;28;20286;-70
2023/08/03 03:07:23;;;;;;;4.20;2.30;;;16.90;99.90;;;;;;5018929;28;20182;-70
2023/08/03 03:09:48;;;;;;;2.30;2.20;;;16.90;99.90;;;;;;5052320;28;20567;-71
2023/08/03 03:12:14;;;;;;;2.67;2.47;;;16.90;99.90;;;;;;5052007;28;20268;-72
2023/08/03 03:14:39;;;;;;;2.93;2.60;;;16.90;99.90;;;;;;5051429;28;20203;-71
2023/08/03 03:17:05;;;;;;;3.57;2.30;;;17.00;99.90;;;;;;5052315;28;20510;-71
2023/08/03 03:19:31;;;;;;;2.27;2.17;;;17.00;99.90;;;;;;5052235;28;20182;-72
2023/08/03 03:21:57;;;;;;;2.53;2.43;;;17.10;99.90;;;;;;5051521;28;20179;-71
2023/08/03 03:24:22;;;;;;;2.60;2.40;;;17.10;99.90;;;;;;5044938;28;20167;-72
2023/08/03 03:26:48;;;;;;;2.40;2.30;;;17.10;99.90;;;;;;5032060;28;20245;-71
2023/08/03 03:29:13;;;;;;;5.23;2.70;;;17.10;99.90;;;;;;5039543;28;20203;-71
2023/08/03 03:31:39;;;;;;;5.60;2.67;;;17.10;99.90;;;;;;5030658;28;20294;-71
2023/08/03 03:34:04;;;;;;;2.80;2.60;;;17.20;99.90;;;;;;5032063;28;20179;-71
2023/08/03 03:36:30;;;;;;;2.50;2.30;;;17.10;99.90;;;;;;5032230;28;20226;-71
2023/08/03 03:38:56;;;;;;;9.17;2.90;;;17.00;99.90;;;;;;5032034;28;20203;-71
2023/08/03 03:41:21;;;;;;;3.13;2.40;;;17.00;99.90;;;;;;5040477;28;20179;-71
2023/08/03 03:43:47;;;;;;;2.47;2.37;;;17.00;99.90;;;;;;5012243;28;20241;-71
2023/08/03 03:46:13;;;;;;;2.50;2.40;;;16.90;99.90;;;;;;5012326;28;20182;-71
2023/08/03 03:48:38;;;;;;;2.37;2.27;;;16.80;99.90;;;;;;5012232;28;20183;-72
2023/08/03 03:51:04;;;;;;;2.40;2.30;;;16.80;99.90;;;;;;5011926;28;20207;-71
2023/08/03 03:53:30;;;;;;;2.60;2.40;;;16.70;99.90;;;;;;5011885;28;20672;-71
2023/08/03 03:55:55;;;;;;;2.37;2.23;;;16.70;99.90;;;;;;5012053;28;20226;-71
2023/08/03 03:58:21;;;;;;;2.80;2.60;;;16.70;99.90;;;;;;5026907;28;20548;-72
2023/08/03 04:00:46;;;;;;;2.80;2.60;;;16.70;99.90;;;;;;5031371;28;20452;-71
2023/08/03 04:03:12;;;;;;;4.80;2.63;;;16.60;99.90;;;;;;5031419;28;20266;-71
2023/08/03 04:05:38;;;;;;;2.43;2.30;;;16.60;99.90;;;;;;5031746;28;20213;-71
2023/08/03 04:08:04;;;;;;;2.53;2.40;;;16.60;99.90;;;;;;5031558;28;20175;-71
2023/08/03 04:10:30;;;;;;;4.17;2.70;;;16.50;99.90;;;;;;5029779;28;20193;-71
2023/08/03 04:12:55;;;;;;;2.50;2.40;;;16.60;99.90;;;;;;5030810;28;20189;-71
2023/08/03 04:15:21;;;;;;;2.50;2.40;;;16.60;99.90;;;;;;5046287;28;20702;-72
2023/08/03 04:17:48;;;;;;;2.70;2.60;;;16.60;99.90;;;;;;5050993;28;20183;-72
2023/08/03 04:20:15;;;;;;;2.60;2.40;;;16.60;99.90;;;;;;5051401;28;20187;-72
2023/08/03 04:22:41;;;;;;;2.70;2.50;;;16.70;99.90;;;;;;5050764;28;20174;-72
2023/08/03 04:25:07;;;;;;;3.67;2.50;;;16.70;99.90;;;;;;5051183;28;20166;-71
2023/08/03 04:27:32;;;;;;;2.33;2.23;;;16.70;99.90;;;;;;5046820;28;20172;-72
2023/08/03 04:29:58;;;;;;;2.50;2.30;;;16.70;99.90;;;;;;5031094;28;20207;-71
2023/08/03 04:32:23;;;;;;;2.50;2.40;;;16.80;99.90;;;;;;5031491;28;20207;-71
2023/08/03 04:34:49;;;;;;;2.20;2.10;;;16.80;99.90;;;;;;5034069;28;20176;-71
2023/08/03 04:37:15;;;;;;;3.10;2.30;;;16.80;99.90;;;;;;5035544;28;20203;-71
2023/08/03 04:39:40;;;;;;;2.50;2.40;;;16.90;99.90;;;;;;5035163;28;20191;-71
2023/08/03 04:42:06;;;;;;;2.40;2.30;;;16.90;99.90;;;;;;5041197;28;20174;-71
2023/08/03 04:44:31;;;;;;;2.47;2.30;;;17.00;99.90;;;;;;5055302;28;20254;-71
2023/08/03 04:46:57;;;;;;;2.33;2.23;;;17.00;99.90;;;;;;5055157;28;20179;-71
2023/08/03 04:49:25;;;;;;;2.37;2.27;;;17.10;99.90;;;;;;5055167;28;20552;-72
2023/08/03 04:51:51;;;;;;;2.57;2.47;;;17.10;99.90;;;;;;5054835;28;20225;-72
2023/08/03 04:54:16;;;;;;;2.93;2.73;;;17.10;99.90;;;;;;5053804;28;20626;-71
2023/08/03 04:56:42;;;;;;;2.40;2.30;;;17.10;99.90;;;;;;5055031;28;20167;-72
2023/08/03 04:59:08;;;;;;;2.20;2.10;;;17.20;99.90;;;;;;5053184;28;20594;-71
2023/08/03 05:01:33;;;;;;;3.37;3.17;;;17.20;99.90;;;;;;5053353;28;20206;-72
2023/08/03 05:04:02;;;;;;;2.70;2.50;;;17.20;99.90;;;;;;5054702;28;20232;-71
2023/08/03 05:06:28;;;;;;;2.30;2.20;;;17.30;99.90;;;;;;5054959;28;20171;-71
2023/08/03 05:08:54;;;;;;;3.30;2.40;;;17.30;99.90;;;;;;5054585;28;20222;-70
2023/08/03 05:11:20;;;;;;;2.70;2.50;;;17.40;99.90;;;;;;5054573;28;20595;-72
2023/08/03 05:13:45;;;;;;;2.30;2.20;;;17.40;99.90;;;;;;5054726;28;20178;-71
2023/08/03 05:16:11;;;;;;;2.40;2.30;;;17.50;99.90;;;;;;5046211;28;20176;-71
2023/08/03 05:18:36;;;;;;;2.30;2.20;;;17.50;99.90;;;;;;5034821;28;20171;-71
2023/08/03 05:21:02;;;;;;;2.20;2.10;;;17.50;99.90;;;;;;5034352;28;20187;-72
2023/08/03 05:23:28;;;;;;;2.73;2.60;;;17.60;99.90;;;;;;5032991;28;20184;-71
2023/08/03 05:25:55;;;;;;;2.20;2.10;;;17.50;99.90;;;;;;5034360;28;20183;-73
2023/08/03 05:28:21;;;;;;;2.30;2.20;;;17.60;99.90;;;;;;5052630;28;20272;-71
2023/08/03 05:30:47;;;;;;;2.20;2.00;;;17.60;99.90;;;;;;5054062;28;20200;-72
2023/08/03 05:33:13;;;;;;;2.27;2.17;;;17.60;99.90;;;;;;5054055;28;20548;-71
2023/08/03 05:35:39;;;;;;;2.20;2.10;;;17.70;99.90;;;;;;5054370;28;20182;-71
2023/08/03 05:38:04;;;;;;;3.13;2.97;;;17.70;99.90;;;;;;5054454;28;20167;-70
2023/08/03 05:40:30;;;;;;;3.00;2.30;;;17.70;99.90;;;;;;5053587;28;20222;-72
2023/08/03 05:42:56;;;;;;;2.40;2.20;;;17.80;99.90;;;;;;5033492;28;20180;-71
2023/08/03 05:45:42;;;;;;;2.23;2.13;;;17.80;99.90;;;;;;5034016;28;20176;-70
2023/08/03 05:48:16;;;;;;;2.27;2.10;;;17.90;99.90;;;;;;5032791;28;20233;-72
2023/08/03 05:50:46;;;;;;;2.10;2.00;;;17.80;99.90;;;;;;5033648;28;20290;-72
2023/08/03 05:53:13;;;;;;;2.50;2.30;;;17.60;99.90;;;;;;5033782;28;20438;-71
2023/08/03 05:55:39;;;;;;;2.23;2.13;;;17.30;99.90;;;;;;5034026;28;20214;-71
2023/08/03 05:58:05;;;;;;;3.27;2.47;;;17.30;99.90;;;;;;5041020;28;20611;-71
2023/08/03 06:00:31;;;;;;;2.77;2.60;;;17.20;99.90;;;;;;5053878;28;20577;-71
2023/08/03 06:02:58;;;;;;;2.67;2.33;;;17.20;99.90;;;;;;5053323;28;20186;-73
2023/08/03 06:05:44;;;;;;;2.40;2.30;;;17.20;99.90;;;;;;5053622;28;20250;-71
2023/08/03 06:08:12;;;;;;;2.57;2.30;;;17.20;99.90;;;;;;5023053;28;20617;-72
2023/08/03 06:10:42;;;;;;;2.30;2.20;;;17.10;99.90;;;;;;5033505;28;20192;-72
2023/08/03 06:13:13;;;;;;;2.80;2.60;;;17.00;99.90;;;;;;5033084;28;20168;-72
2023/08/03 06:15:39;;;;;;;2.83;2.60;;;17.00;99.90;;;;;;5034563;28;20225;-71
2023/08/03 06:18:09;;;;;;;3.53;2.73;;;16.90;99.90;;;;;;5033342;28;20672;-71
2023/08/03 06:20:35;;;;;;;2.87;2.67;;;16.90;99.90;;;;;;5033317;28;20366;-71
2023/08/03 06:23:01;;;;;;;3.50;2.50;;;16.80;99.90;;;;;;5032795;28;20684;-71
2023/08/03 06:25:27;;;;;;;2.57;2.47;;;16.60;99.90;;;;;;5032076;28;20178;-71
2023/08/03 06:27:53;;;;;;;3.30;2.50;;;16.50;99.90;;;;;;5033332;28;20176;-71
2023/08/03 06:30:18;;;;;;;2.97;2.67;;;16.50;99.90;;;;;;5033214;28;20187;-71
2023/08/03 06:32:44;;;;;;;2.80;2.60;;;16.50;99.90;;;;;;5033935;28;20207;-72
2023/08/03 06:35:40;;;;;;;3.10;2.90;;;16.50;99.90;;;;;;5030235;28;20662;-72
2023/08/03 06:38:08;;;;;;;4.37;3.00;;;16.40;99.90;;;;;;5028535;28;20607;-71
2023/08/03 06:40:34;;;;;;;3.00;2.80;;;16.30;99.90;;;;;;5032984;28;20206;-71
2023/08/03 06:43:03;;;;;;;3.37;3.17;;;16.30;99.90;;;;;;5032284;28;20206;-72
2023/08/03 06:45:33;;;;;;;4.60;2.90;;;16.20;99.90;;;;;;5032265;28;20202;-72
2023/08/03 06:47:59;;;;;;;3.13;2.93;;;16.20;99.90;;;;;;5036837;28;20174;-71
2023/08/03 06:50:26;;;;;;;2.60;2.50;;;16.20;99.90;;;;;;5051565;28;20575;-72
2023/08/03 06:52:52;;;;;;;3.20;2.90;;;16.20;99.90;;;;;;5052328;28;20185;-72
2023/08/03 06:55:18;;;;;;;3.03;2.83;;;16.30;99.90;;;;;;5052381;28;20241;-73
2023/08/03 06:57:44;;;;;;;3.00;2.80;;;16.30;99.90;;;;;;5050638;28;20654;-72
2023/08/03 07:00:11;;;;;;;3.40;3.07;;;16.30;99.90;;;;;;5033460;28;20200;-72
2023/08/03 07:02:36;;;;;;;3.47;3.17;;;16.30;99.90;;;;;;5032531;28;20518;-71
2023/08/03 07:05:02;;;;;;;3.23;3.03;;;16.30;99.90;;;;;;5032502;28;20294;-71
2023/08/03 07:07:28;;;;;;;3.57;3.00;;;16.20;99.90;;;;;;5038505;28;20202;-72
2023/08/03 07:09:54;;;;;;;3.10;2.90;;;16.20;99.90;;;;;;5046470;28;20676;-72
2023/08/03 07:12:20;;;;;;;3.50;3.00;;;16.30;99.90;;;;;;5032143;28;20211;-72
2023/08/03 07:14:47;;;;;;;3.40;3.20;;;16.30;99.90;;;;;;5037260;28;20183;-72
2023/08/03 07:17:12;;;;;;;3.30;3.10;;;16.30;99.90;;;;;;5037898;28;20533;-72
2023/08/03 07:19:38;;;;;;;3.40;3.20;;;16.40;99.90;;;;;;5030705;28;20270;-73
2023/08/03 07:22:04;;;;;;;3.17;2.97;;;16.50;99.90;;;;;;5039274;28;20183;-73
2023/08/03 07:24:33;;;;;;;3.33;3.13;;;16.50;99.90;;;;;;5051004;28;20179;-74
2023/08/03 07:27:00;;;;;;;3.47;3.27;;;16.50;99.90;;;;;;5051159;28;20174;-73
2023/08/03 07:29:27;;;;;;;3.30;3.10;;;16.60;99.90;;;;;;5052139;28;20294;-72
2023/08/03 07:31:53;;;;;;;3.20;3.00;;;16.60;99.90;;;;;;5045499;28;20202;-74
2023/08/03 07:34:18;;;;;;;3.60;3.40;;;16.60;99.90;;;;;;5032084;28;20561;-72
2023/08/03 07:36:45;;;;;;;3.30;3.00;;;16.70;99.90;;;;;;5032072;28;20208;-73
2023/08/03 07:39:11;;;;;;;4.43;2.90;;;16.80;99.90;;;;;;5032000;28;20705;-73
2023/08/03 07:41:37;;;;;;;3.50;3.20;;;16.90;99.90;;;;;;5031764;28;20568;-73
2023/08/03 07:44:03;;;;;;;3.30;3.10;;;17.00;99.90;;;;;;5031940;28;20175;-73
2023/08/03 07:46:30;;;;;;;3.17;2.90;;;17.10;99.90;;;;;;5031949;28;20190;-73
2023/08/03 07:48:56;;;;;;;3.57;3.03;;;17.30;99.90;;;;;;5039691;28;20454;-73
2023/08/03 07:51:22;;;;;;;4.37;3.17;;;17.40;99.90;;;;;;5049027;28;20664;-72
2023/08/03 07:53:48;;;;;;;3.33;2.93;;;17.50;99.90;;;;;;5051472;28;20181;-72
2023/08/03 07:56:18;;;;;;;3.47;2.97;;;17.60;99.90;;;;;;5051686;28;20209;-72
2023/08/03 07:58:44;;;;;;;2.97;2.77;;;17.80;99.90;;;;;;5051577;28;20624;-72
2023/08/03 08:01:10;;;;;;;3.17;2.70;;;17.90;99.90;;;;;;5050069;28;20202;-71
2023/08/03 08:03:39;;;;;;;2.87;2.67;;;18.10;99.90;;;;;;5051335;28;20270;-72
2023/08/03 08:06:06;;;;;;;3.80;3.00;;;18.20;99.90;;;;;;5049817;28;20590;-73
2023/08/03 08:08:32;;;;;;;3.13;2.93;;;18.20;99.90;;;;;;5044191;28;20641;-73
2023/08/03 08:10:58;;;;;;;2.90;2.70;;;18.20;99.90;;;;;;5031035;28;20215;-71
2023/08/03 08:13:24;;;;;;;2.70;2.50;;;18.30;99.90;;;;;;5031142;28;20172;-73
2023/08/03 08:15:49;;;;;;;4.37;2.70;;;18.50;99.90;;;;;;5031388;28;20221;-73
2023/08/03 08:18:15;;;;;;;2.73;2.57;;;18.50;99.90;;;;;;5047228;28;20190;-72
2023/08/03 08:20:41;;;;;;;2.90;2.70;;;18.50;99.90;;;;;;5051290;28;20205;-73
2023/08/03 08:23:07;;;;;;;2.60;2.50;;;18.40;99.90;;;;;;5050863;28;20167;-72
2023/08/03 08:25:33;;;;;;;2.70;2.50;;;18.40;99.90;;;;;;5049360;28;20270;-73
2023/08/03 08:27:59;;;;;;;2.80;2.60;;;18.40;99.90;;;;;;5051044;28;20253;-73
2023/08/03 08:30:25;;;;;;;2.80;2.60;;;18.20;99.90;;;;;;5050751;28;20759;-73
2023/08/03 08:32:52;;;;;;;3.57;3.30;;;18.00;99.90;;;;;;5030882;28;20695;-71
2023/08/03 08:35:18;;;;;;;2.77;2.63;;;17.90;99.90;;;;;;5029582;28;20286;-71
2023/08/03 08:37:43;;;;;;;2.80;2.60;;;17.70;99.90;;;;;;5029896;28;20648;-72
2023/08/03 08:40:12;;;;;;;2.67;2.50;;;17.60;99.90;;;;;;5029765;28;20196;-73
2023/08/03 08:42:38;;;;;;;3.17;2.87;;;17.50;99.90;;;;;;5029732;28;20178;-72
2023/08/03 08:45:07;;;;;;;4.10;2.77;;;17.40;99.90;;;;;;5030083;28;20179;-72
2023/08/03 08:47:33;;;;;;;3.03;2.83;;;17.40;99.90;;;;;;5034721;28;20541;-70
2023/08/03 08:49:58;;;;;;;3.13;2.93;;;17.40;99.90;;;;;;5050667;28;20194;-71
2023/08/03 08:52:26;;;;;;;3.23;3.00;;;17.40;99.90;;;;;;5050485;28;20264;-71
2023/08/03 08:55:17;;;;;;;3.00;2.67;;;17.30;99.90;;;;;;5050655;28;20174;-72
2023/08/03 08:57:43;;;;;;;2.93;2.70;;;17.20;99.90;;;;;;5047944;28;20277;-72
2023/08/03 09:00:09;;;;;;;3.00;2.80;;;17.20;99.90;;;;;;5050596;28;20610;-72
2023/08/03 09:02:36;;;;;;;2.93;2.73;;;17.30;99.90;;;;;;5038085;28;20206;-72
2023/08/03 09:05:19;;;;;;;3.07;2.77;;;17.50;99.90;;;;;;5030509;28;20572;-72
2023/08/03 09:07:45;;;;;;;3.00;2.80;;;17.70;99.90;;;;;;5030489;28;20175;-72
2023/08/03 09:10:11;;;;;;;2.73;2.63;;;17.90;99.90;;;;;;5030466;28;20210;-71
2023/08/03 09:12:39;;;;;;;3.00;2.80;;;18.10;99.90;;;;;;5030121;28;20677;-72
2023/08/03 09:15:05;;;;;;;2.60;2.50;;;18.50;99.90;;;;;;5030436;28;20176;-72
2023/08/03 09:17:31;;;;;;;2.70;2.50;;;18.70;99.90;;;;;;5048091;28;20293;-72
2023/08/03 09:19:57;;;;;;;2.30;2.20;;;18.90;99.90;;;;;;5053415;28;20199;-72
2023/08/03 09:22:24;;;;;;;2.60;2.50;;;18.90;99.90;;;;;;5054178;28;20644;-72
2023/08/03 09:25:07;;;;;;;2.90;2.67;;;19.00;99.90;;;;;;5053179;28;20209;-73
2023/08/03 09:27:33;;;;;;;2.90;2.70;;;19.10;99.90;;;;;;5054081;28;20181;-72
2023/08/03 09:30:04;;;;;;;2.70;2.50;;;19.20;99.90;;;;;;5051838;28;20212;-73
2023/08/03 09:32:31;;;;;;;2.40;2.20;;;19.20;99.90;;;;;;5049848;28;20233;-73
2023/08/03 09:34:58;;;;;;;2.40;2.30;;;19.50;99.90;;;;;;5034112;28;20171;-71
2023/08/03 09:37:41;;;;;;;2.60;2.40;;;19.70;99.90;;;;;;5034202;28;20736;-72
2023/08/03 09:40:07;;;;;;;3.70;3.10;;;19.70;99.90;;;;;;5033907;28;20199;-71
2023/08/03 09:42:35;;;;;;;2.63;2.43;;;19.70;99.90;;;;;;5034006;28;20258;-72
2023/08/03 09:45:01;;;;;;;2.57;2.33;;;19.80;99.90;;;;;;5032404;28;20183;-72
2023/08/03 09:47:27;;;;;;;3.37;2.50;;;19.90;99.90;;;;;;5039130;28;20178;-72
2023/08/03 09:49:53;;;;;;;5.53;2.50;;;20.20;99.90;;;;;;5053554;28;20199;-71
2023/08/03 09:52:26;;;;;;;2.93;2.30;;;20.70;99.90;;;;;;5053570;28;20682;-72
2023/08/03 09:55:00;;;;;;;341.00;84.30;;;21.20;99.90;;;;;;5053890;28;20515;-71
2023/08/03 09:57:34;;;;;;;8.48;3.40;;;21.40;99.90;;;;;;5052559;28;20181;-73
2023/08/03 10:00:06;;;;;;;4.05;2.60;;;21.30;99.90;;;;;;5051891;28;20294;-71
2023/08/03 10:02:48;;;;;;;575.30;172.37;;;21.40;99.90;;;;;;5051144;28;20224;-71
2023/08/03 10:05:21;;;;;;;2.80;2.60;;;21.30;99.90;;;;;;5051075;28;20192;-72
2023/08/03 10:08:09;;;;;;;3.00;2.80;;;21.10;99.90;;;;;;5053590;28;20182;-72
2023/08/03 10:10:46;;;;;;;3.00;2.70;;;21.30;99.90;;;;;;5052517;28;20195;-72
2023/08/03 10:13:11;;;;;;;2.97;2.67;;;21.70;99.90;;;;;;5052494;28;20592;-71
2023/08/03 10:15:40;;;;;;;2.42;2.33;;;22.20;99.90;;;;;;5053640;28;20179;-72
2023/08/03 10:18:05;;;;;;;4.50;2.60;;;22.50;99.90;;;;;;5053326;28;20171;-72
2023/08/03 10:20:33;;;;;;;3.55;2.33;;;22.70;99.90;;;;;;5052261;28;20187;-72
2023/08/03 10:23:14;;;;;;;3.22;2.80;;;22.70;99.90;;;;;;5051189;28;20228;-72
2023/08/03 10:26:00;;;;;;;6.90;3.33;;;23.00;99.90;;;;;;5051789;28;20170;-71
2023/08/03 10:28:38;;;;;;;3.08;2.72;;;23.10;99.90;;;;;;5053316;28;20194;-71
2023/08/03 10:31:19;;;;;;;4.70;3.05;;;22.80;99.90;;;;;;5051517;28;20233;-72
2023/08/03 10:33:47;;;;;;;4.28;3.33;;;22.40;99.90;;;;;;5053048;28;20171;-72
2023/08/03 10:36:31;;;;;;;4.13;3.13;;;21.80;99.90;;;;;;5049294;28;20201;-71
2023/08/03 10:39:01;;;;;;;3.00;2.80;;;21.40;99.90;;;;;;5051316;28;20735;-71
2023/08/03 10:41:36;;;;;;;4.20;2.70;;;21.30;99.90;;;;;;5052790;28;20184;-71
2023/08/03 10:44:13;;;;;;;3.47;3.17;;;21.10;99.90;;;;;;5052948;28;20205;-71
2023/08/03 10:46:43;;;;;;;3.70;3.28;;;20.80;99.90;;;;;;5052777;28;20544;-71
2023/08/03 10:49:22;;;;;;;3.10;2.90;;;20.60;99.90;;;;;;5052413;28;20182;-71
2023/08/03 10:51:55;;;;;;;5.10;2.67;;;20.50;99.90;;;;;;5044697;28;20210;-70
2023/08/03 10:54:27;;;;;;;3.60;3.07;;;20.40;99.90;;;;;;5032769;28;20175;-71
2023/08/03 10:57:10;;;;;;;3.10;2.90;;;20.50;99.90;;;;;;5032782;28;20164;-71
2023/08/03 10:59:48;;;;;;;3.50;2.70;;;20.30;99.90;;;;;;5032789;28;20195;-72
2023/08/03 11:02:26;;;;;;;3.17;2.87;;;20.00;99.90;;;;;;5032325;28;20225;-71
2023/08/03 11:04:53;;;;;;;6.83;3.37;;;19.70;99.90;;;;;;5036122;28;20221;-70
2023/08/03 11:07:27;;;;;;;3.93;3.00;;;19.50;99.90;;;;;;5032370;28;20175;-71
2023/08/03 11:09:53;;;;;;;3.07;2.40;;;19.80;99.90;;;;;;5051610;28;20194;-72
2023/08/03 11:12:22;;;;;;;2.53;2.33;;;20.50;99.90;;;;;;5052335;28;20199;-71
2023/08/03 11:14:51;;;;;;;4.18;2.50;;;21.20;99.90;;;;;;5052227;28;20171;-71
2023/08/03 11:17:29;;;;;;;3.50;2.50;;;21.80;99.90;;;;;;5052361;28;20182;-72
2023/08/03 11:19:56;;;;;;;4.18;3.80;;;22.30;99.90;;;;;;5043496;28;20210;-71
2023/08/03 11:22:22;;;;;;;3.83;3.45;;;22.80;99.90;;;;;;5031807;28;20230;-70
2023/08/03 11:24:55;;;;;;;4.88;2.38;;;23.00;99.90;;;;;;5032015;28;20179;-70
2023/08/03 11:27:22;;;;;;;3.05;2.50;;;23.00;99.90;;;;;;5032099;28;20175;-71
2023/08/03 11:29:48;;;;;;;3.00;2.80;;;23.00;99.90;;;;;;5031818;28;20234;-71
2023/08/03 11:32:28;;;;;;;4.25;3.00;;;23.00;99.90;;;;;;5031711;28;20226;-70
2023/08/03 11:35:01;;;;;;;2.78;2.50;;;22.90;99.90;;;;;;5032098;28;20227;-71
2023/08/03 11:37:29;;;;;;;3.78;2.55;;;23.00;99.90;;;;;;5045830;28;20531;-71
2023/08/03 11:39:54;;;;;;;3.17;2.90;;;23.10;99.90;;;;;;5051597;28;20198;-70
2023/08/03 11:42:20;;;;;;;2.65;2.45;;;23.10;99.90;;;;;;5049354;28;20178;-70
2023/08/03 11:44:46;;;;;;;3.40;2.80;;;23.20;99.90;;;;;;5052091;28;20183;-70
2023/08/03 11:47:11;;;;;;;3.30;2.90;;;23.30;99.90;;;;;;5051435;28;20224;-71
2023/08/03 11:49:37;;;;;;;3.95;2.72;;;23.30;99.90;;;;;;5051629;28;20195;-71
2023/08/03 11:52:03;;;;;;;2.88;2.50;;;23.30;99.90;;;;;;5049567;28;20207;-70
2023/08/03 11:54:32;;;;;;;5.97;2.90;;;23.40;99.90;;;;;;5050022;28;20214;-71
2023/08/03 11:59:44;;;;;;;2.85;2.60;;;22.80;99.90;;;;;;5051424;28;20190;-71
2023/08/03 12:02:10;;;;;;;3.35;3.05;;;22.60;99.90;;;;;;5050847;28;20170;-72
2023/08/03 12:04:35;;;;;;;3.65;2.80;;;22.30;99.90;;;;;;5048875;28;20245;-71
2023/08/03 12:07:02;;;;;;;5.80;3.53;;;22.20;99.90;;;;;;5031348;28;20270;-71
2023/08/03 12:09:29;;;;;;;6.35;2.47;;;22.00;99.90;;;;;;5031523;28;20213;-70
2023/08/03 12:12:01;;;;;;;2.85;2.00;;;21.60;99.90;;;;;;5031025;28;20293;-70
2023/08/03 12:14:27;;;;;;;3.63;3.33;;;21.40;99.90;;;;;;5032292;28;20186;-70
2023/08/03 12:16:53;;;;;;;3.13;2.80;;;21.30;99.90;;;;;;5051296;28;20249;-71
2023/08/03 12:19:19;;;;;;;2.53;2.33;;;21.60;99.90;;;;;;5051084;28;20263;-69
2023/08/03 12:21:45;;;;;;;2.85;2.67;;;21.90;99.90;;;;;;5034266;28;20167;-69
2023/08/03 12:24:12;;;;;;;6.47;2.85;;;22.00;99.90;;;;;;5051325;28;20177;-70
2023/08/03 12:26:37;;;;;;;3.08;2.80;;;21.80;99.90;;;;;;5051476;28;20178;-70
2023/08/03 12:29:04;;;;;;;3.05;2.85;;;21.70;99.90;;;;;;5051052;28;20167;-69
2023/08/03 12:31:30;;;;;;;2.40;2.30;;;21.80;99.90;;;;;;5050054;28;20195;-71
2023/08/03 12:33:56;;;;;;;3.85;2.72;;;22.10;99.90;;;;;;5032237;28;20587;-69
2023/08/03 12:36:22;;;;;;;2.83;2.47;;;22.00;99.90;;;;;;5031337;28;20301;-69
2023/08/03 12:38:48;;;;;;;2.97;2.63;;;21.70;99.90;;;;;;5031262;28;20167;-69
2023/08/03 12:41:14;;;;;;;4.22;3.28;;;21.70;99.90;;;;;;5035111;28;20199;-71
2023/08/03 12:43:40;;;;;;;3.63;3.40;;;22.00;99.90;;;;;;5049717;28;20174;-70
2023/08/03 12:46:06;;;;;;;3.90;3.65;;;22.40;99.90;;;;;;5051058;28;20179;-69
2023/08/03 12:48:31;;;;;;;2.97;2.78;;;22.50;99.90;;;;;;5049365;28;20579;-71
2023/08/03 12:50:57;;;;;;;3.03;2.72;;;22.60;99.90;;;;;;5050750;28;20211;-69